Time;durP1;ratioP1;P1;durP2;ratioP2;P2;SDS_P1;SDS_P2;PMS_P1;PMS_P2;Temp;Humidity;BMP_temperature;BMP_pressure;BME280_temperature;BME280_humidity;BME280_pressure;Samples;Min_cycle;Max_cycle;Signal;HPM_P1;HPM_P2
2022/11/25 00:00:51;;;;;;;7.07;1.77;;;9.90;85.80;;;;;;5072228;28;20032;-34
2022/11/25 00:03:16;;;;;;;7.38;1.85;;;9.90;85.80;;;;;;5072058;28;20020;-34
2022/11/25 00:05:42;;;;;;;6.72;1.83;;;9.90;85.70;;;;;;5072037;28;20033;-34
2022/11/25 00:08:08;;;;;;;7.95;2.00;;;9.90;85.90;;;;;;5053699;28;20494;-34
2022/11/25 00:10:34;;;;;;;8.85;1.80;;;9.90;85.80;;;;;;5071826;28;20071;-34
2022/11/25 00:13:00;;;;;;;11.00;1.90;;;9.90;85.90;;;;;;5071647;28;20453;-34
2022/11/25 00:15:25;;;;;;;7.18;1.83;;;9.90;85.90;;;;;;5070978;28;20060;-34
2022/11/25 00:17:51;;;;;;;9.25;2.03;;;9.90;86.10;;;;;;5071935;28;20031;-34
2022/11/25 00:20:19;;;;;;;6.13;1.90;;;9.90;86.10;;;;;;5071734;28;20024;-42
2022/11/25 00:22:44;;;;;;;14.77;2.35;;;9.80;86.10;;;;;;5072142;28;20028;-34
2022/11/25 00:25:10;;;;;;;10.13;2.28;;;9.70;86.10;;;;;;5072135;28;20051;-34
2022/11/25 00:27:36;;;;;;;6.72;2.08;;;9.70;86.20;;;;;;5071949;28;20082;-37
2022/11/25 00:30:02;;;;;;;9.77;1.95;;;9.70;86.90;;;;;;5071803;28;20020;-33
2022/11/25 00:32:28;;;;;;;7.13;1.90;;;9.70;86.60;;;;;;5071778;28;20032;-37
2022/11/25 00:34:53;;;;;;;6.55;1.88;;;9.60;86.60;;;;;;5071722;28;20070;-34
2022/11/25 00:37:19;;;;;;;12.43;2.40;;;9.60;86.60;;;;;;5071880;28;20033;-34
2022/11/25 00:39:44;;;;;;;7.72;1.90;;;9.60;86.50;;;;;;5071650;28;20088;-35
2022/11/25 00:45:14;;;;;;;8.05;1.88;;;9.60;86.60;;;;;;5029082;28;20558;-34
2022/11/25 00:47:39;;;;;;;6.93;2.10;;;9.60;86.60;;;;;;5029220;28;20042;-35
2022/11/25 00:50:05;;;;;;;5.90;2.08;;;9.60;86.50;;;;;;5031511;28;20033;-33
2022/11/25 00:52:35;;;;;;;6.97;2.00;;;9.60;86.60;;;;;;5072397;28;20031;-34
2022/11/25 00:55:01;;;;;;;9.52;2.35;;;9.60;86.60;;;;;;5075711;28;20021;-34
2022/11/25 00:57:27;;;;;;;8.27;2.00;;;9.60;86.60;;;;;;5075597;28;20036;-35
2022/11/25 00:59:53;;;;;;;7.82;2.00;;;9.70;86.60;;;;;;5075460;28;20047;-35
2022/11/25 01:02:19;;;;;;;8.50;2.05;;;9.70;86.60;;;;;;5075321;28;20108;-35
2022/11/25 01:04:45;;;;;;;5.00;1.70;;;9.70;86.60;;;;;;5075389;28;20027;-37
2022/11/25 01:07:11;;;;;;;7.03;1.85;;;9.70;86.80;;;;;;5074989;28;20188;-39
2022/11/25 01:09:38;;;;;;;5.63;1.92;;;9.70;86.80;;;;;;5075599;28;20139;-40
2022/11/25 01:12:04;;;;;;;8.93;1.88;;;9.70;86.80;;;;;;5075241;28;20108;-34
2022/11/25 01:14:30;;;;;;;9.13;1.90;;;9.70;86.80;;;;;;5074648;28;20098;-35
2022/11/25 01:16:56;;;;;;;8.45;1.90;;;9.70;86.80;;;;;;5074727;28;20051;-34
2022/11/25 01:19:22;;;;;;;8.88;2.15;;;9.70;87.40;;;;;;5074397;28;20024;-34
2022/11/25 01:21:47;;;;;;;7.07;1.88;;;9.70;86.80;;;;;;5074618;28;20388;-44
2022/11/25 01:24:14;;;;;;;8.13;1.98;;;9.70;86.80;;;;;;5074422;28;20060;-34
2022/11/25 01:26:40;;;;;;;7.45;1.90;;;9.70;86.80;;;;;;5074578;28;20028;-36
2022/11/25 01:29:11;;;;;;;8.48;1.63;;;9.70;86.80;;;;;;5074520;28;20487;-37
2022/11/25 01:31:37;;;;;;;8.13;1.80;;;9.70;86.80;;;;;;5074312;28;20035;-41
2022/11/25 01:34:23;;;;;;;8.23;1.83;;;9.80;86.90;;;;;;5074194;28;20032;-32
2022/11/25 01:36:49;;;;;;;5.93;1.60;;;9.80;86.90;;;;;;5074252;28;20029;-48
2022/11/25 01:39:20;;;;;;;7.10;1.83;;;9.80;87.00;;;;;;5074484;28;20020;-35
2022/11/25 01:41:47;;;;;;;6.80;1.80;;;9.80;87.00;;;;;;5073838;28;20036;-39
2022/11/25 01:44:19;;;;;;;9.82;1.90;;;9.80;86.90;;;;;;5073795;28;20032;-32
2022/11/25 01:46:54;;;;;;;10.00;2.15;;;9.80;86.90;;;;;;5073862;28;20036;-34
2022/11/25 01:49:41;;;;;;;5.35;1.63;;;9.80;86.80;;;;;;5074236;28;20415;-36
2022/11/25 01:52:19;;;;;;;7.18;1.83;;;9.80;87.00;;;;;;5073875;28;20056;-34
2022/11/25 01:55:00;;;;;;;7.10;1.60;;;9.90;87.10;;;;;;5073715;28;20116;-34
2022/11/25 01:57:38;;;;;;;6.43;1.67;;;9.80;87.10;;;;;;5073840;28;20021;-34
2022/11/25 02:00:06;;;;;;;4.97;1.60;;;9.80;87.10;;;;;;5073497;28;20033;-34
2022/11/25 02:02:32;;;;;;;5.13;1.63;;;9.80;87.10;;;;;;5073951;28;20028;-34
2022/11/25 02:05:00;;;;;;;4.93;1.42;;;9.80;87.20;;;;;;5072618;28;20032;-35
2022/11/25 02:07:35;;;;;;;6.28;1.65;;;9.80;87.20;;;;;;5073443;28;20139;-34
2022/11/25 02:10:04;;;;;;;4.65;1.52;;;9.80;87.40;;;;;;5073323;28;20435;-35
2022/11/25 02:12:31;;;;;;;9.95;1.73;;;9.80;87.40;;;;;;5073107;28;20039;-35
2022/11/25 02:14:58;;;;;;;7.20;2.20;;;9.80;87.50;;;;;;5073623;28;20101;-35
2022/11/25 02:17:24;;;;;;;8.75;1.77;;;9.80;87.70;;;;;;5073228;28;20101;-35
2022/11/25 02:19:59;;;;;;;7.65;1.85;;;9.90;87.70;;;;;;5073322;28;20445;-36
2022/11/25 02:22:52;;;;;;;8.75;1.67;;;9.90;87.60;;;;;;5073338;28;20403;-54
2022/11/25 02:25:33;;;;;;;6.80;1.45;;;9.90;87.60;;;;;;5073285;28;20043;-35
2022/11/25 02:28:06;;;;;;;8.35;1.90;;;9.90;87.60;;;;;;5073268;28;20031;-35
2022/11/25 02:30:32;;;;;;;7.20;1.65;;;9.90;87.60;;;;;;5055184;28;20033;-34
2022/11/25 02:32:59;;;;;;;8.18;1.90;;;9.90;87.60;;;;;;5072881;28;20029;-35
2022/11/25 02:35:29;;;;;;;6.93;1.67;;;9.90;87.60;;;;;;5072862;28;20373;-34
2022/11/25 02:38:12;;;;;;;7.00;1.65;;;9.90;87.90;;;;;;5073307;28;20021;-34
2022/11/25 02:41:04;;;;;;;8.93;2.20;;;9.90;87.90;;;;;;5055014;28;20044;-34
2022/11/25 02:43:30;;;;;;;4.60;1.52;;;9.90;87.70;;;;;;5073130;28;20033;-35
2022/11/25 02:46:04;;;;;;;8.95;1.70;;;10.00;87.70;;;;;;5072744;28;20043;-34
2022/11/25 02:48:33;;;;;;;6.13;1.63;;;9.90;87.60;;;;;;5072431;28;20082;-34
2022/11/25 02:50:58;;;;;;;6.45;1.80;;;9.90;87.60;;;;;;5072678;28;20131;-39
2022/11/25 02:53:24;;;;;;;6.75;2.10;;;10.00;87.60;;;;;;5073004;28;20128;-34
2022/11/25 02:55:50;;;;;;;5.93;1.92;;;10.00;87.50;;;;;;5072860;28;20036;-36
2022/11/25 02:58:17;;;;;;;12.25;2.20;;;10.00;87.50;;;;;;5072582;28;20063;-34
2022/11/25 03:00:43;;;;;;;7.10;1.80;;;10.00;87.40;;;;;;5072782;28;20017;-34
2022/11/25 03:03:10;;;;;;;4.88;1.73;;;10.00;87.50;;;;;;5072833;28;20097;-35
2022/11/25 03:05:36;;;;;;;5.88;1.80;;;10.10;87.50;;;;;;5072275;28;20036;-33
2022/11/25 03:08:02;;;;;;;7.80;2.00;;;10.10;87.40;;;;;;5072124;28;20415;-34
2022/11/25 03:10:27;;;;;;;6.53;1.80;;;10.10;87.40;;;;;;5072579;28;20039;-33
2022/11/25 03:12:53;;;;;;;10.13;2.03;;;10.10;87.40;;;;;;5072441;28;20442;-37
2022/11/25 03:15:20;;;;;;;6.72;1.70;;;10.10;87.40;;;;;;5072317;28;20078;-32
2022/11/25 03:17:45;;;;;;;5.47;1.85;;;10.10;87.50;;;;;;5054207;28;20531;-34
2022/11/25 03:20:13;;;;;;;9.65;2.28;;;10.10;87.50;;;;;;5072269;28;20032;-35
2022/11/25 03:22:40;;;;;;;8.38;1.80;;;10.10;87.50;;;;;;5072371;28;20033;-35
2022/11/25 03:25:05;;;;;;;6.55;1.95;;;10.10;87.50;;;;;;5072363;28;20102;-34
2022/11/25 03:27:33;;;;;;;10.25;2.08;;;10.10;87.50;;;;;;5072174;28;20066;-34
2022/11/25 03:29:59;;;;;;;6.68;1.98;;;10.20;87.60;;;;;;5072256;28;20489;-38
2022/11/25 03:32:24;;;;;;;3.55;1.38;;;10.20;87.70;;;;;;5071916;28;20130;-35
2022/11/25 03:34:50;;;;;;;6.55;1.90;;;10.20;87.70;;;;;;5071972;28;20037;-35
2022/11/25 03:37:16;;;;;;;8.63;1.70;;;10.20;87.70;;;;;;5072011;28;20166;-33
2022/11/25 03:39:41;;;;;;;8.32;1.88;;;10.20;87.60;;;;;;5071956;28;20029;-35
2022/11/25 03:42:07;;;;;;;7.65;1.90;;;10.20;87.70;;;;;;5071835;28;20068;-33
2022/11/25 03:44:32;;;;;;;5.45;1.80;;;10.20;87.70;;;;;;5071722;28;20510;-32
2022/11/25 03:46:58;;;;;;;8.38;1.95;;;10.20;87.80;;;;;;5071688;28;20032;-36
2022/11/25 03:49:23;;;;;;;5.15;1.70;;;10.30;87.80;;;;;;5071652;28;20102;-38
2022/11/25 03:51:49;;;;;;;7.18;1.70;;;10.30;87.90;;;;;;5071562;28;20060;-33
2022/11/25 03:54:15;;;;;;;6.72;1.42;;;10.30;87.90;;;;;;5071694;28;20024;-33
2022/11/25 03:56:40;;;;;;;6.18;1.70;;;10.30;87.90;;;;;;5071735;28;20502;-33
2022/11/25 03:59:06;;;;;;;6.90;1.80;;;10.20;87.90;;;;;;5071862;28;20031;-33
2022/11/25 04:01:32;;;;;;;7.07;1.65;;;10.30;88.00;;;;;;5071840;28;20434;-33
2022/11/25 04:03:57;;;;;;;7.30;1.80;;;10.30;88.00;;;;;;5071769;28;20024;-33
2022/11/25 04:06:23;;;;;;;11.98;1.92;;;10.30;88.00;;;;;;5071544;28;20111;-33
2022/11/25 04:08:51;;;;;;;8.68;2.08;;;10.30;88.10;;;;;;5071857;28;20396;-33
2022/11/25 04:11:17;;;;;;;7.25;1.70;;;10.20;88.10;;;;;;5071446;28;20250;-33
2022/11/25 04:13:43;;;;;;;5.15;1.90;;;10.20;88.20;;;;;;5071300;28;20025;-33
2022/11/25 04:16:23;;;;;;;6.00;1.75;;;10.20;88.20;;;;;;5053283;28;20032;-33
2022/11/25 04:18:49;;;;;;;5.10;1.70;;;10.20;88.30;;;;;;5071730;28;20028;-33
2022/11/25 04:21:15;;;;;;;6.25;1.70;;;10.20;88.30;;;;;;5071480;28;20028;-32
2022/11/25 04:23:41;;;;;;;5.88;1.52;;;10.20;88.40;;;;;;5071593;28;20044;-33
2022/11/25 04:26:07;;;;;;;4.68;1.40;;;10.20;88.40;;;;;;5071213;28;20455;-32
2022/11/25 04:28:32;;;;;;;7.22;1.60;;;10.20;88.40;;;;;;5070757;28;20020;-32
2022/11/25 04:30:58;;;;;;;5.13;1.65;;;10.20;88.50;;;;;;5071329;28;20028;-32
2022/11/25 04:33:23;;;;;;;6.85;2.10;;;10.20;88.50;;;;;;5070977;28;20127;-32
2022/11/25 04:35:49;;;;;;;8.52;1.90;;;10.20;88.50;;;;;;5071225;28;20024;-33
2022/11/25 04:38:15;;;;;;;8.15;1.58;;;10.20;88.50;;;;;;5071277;28;20032;-33
2022/11/25 04:40:40;;;;;;;7.43;1.50;;;10.30;88.60;;;;;;5071131;28;20409;-33
2022/11/25 04:43:06;;;;;;;6.20;1.80;;;10.30;88.60;;;;;;5071265;28;20032;-32
2022/11/25 04:45:31;;;;;;;10.18;2.08;;;10.30;88.50;;;;;;5070917;28;20060;-33
2022/11/25 04:47:57;;;;;;;6.43;1.67;;;10.20;88.50;;;;;;5070995;28;20135;-33
2022/11/25 04:50:23;;;;;;;7.22;1.85;;;10.20;88.50;;;;;;5071383;28;20028;-32
2022/11/25 04:52:49;;;;;;;7.60;1.90;;;10.20;88.50;;;;;;5070690;28;20043;-32
2022/11/25 04:55:14;;;;;;;7.88;1.77;;;10.20;88.60;;;;;;5070896;28;20107;-33
2022/11/25 04:57:40;;;;;;;5.75;1.90;;;10.20;88.70;;;;;;5070856;28;20475;-32
2022/11/25 05:00:08;;;;;;;5.70;1.80;;;10.20;88.70;;;;;;5071092;28;20024;-33
2022/11/25 05:02:33;;;;;;;5.30;1.60;;;10.30;88.80;;;;;;5071295;28;20040;-33
2022/11/25 05:04:59;;;;;;;13.88;1.80;;;10.30;88.70;;;;;;5070794;28;20391;-34
2022/11/25 05:07:27;;;;;;;7.93;1.80;;;10.30;89.00;;;;;;5049534;28;20049;-32
2022/11/25 05:09:53;;;;;;;7.70;1.85;;;10.30;88.70;;;;;;5050692;28;20162;-32
2022/11/25 05:12:21;;;;;;;5.75;1.65;;;10.30;88.80;;;;;;5051128;28;20107;-32
2022/11/25 05:14:47;;;;;;;8.00;1.88;;;10.30;88.80;;;;;;5050669;28;20112;-30
2022/11/25 05:17:15;;;;;;;6.15;2.08;;;10.30;88.80;;;;;;5050681;28;20041;-33
2022/11/25 05:19:41;;;;;;;7.85;1.98;;;10.40;88.90;;;;;;5050980;28;20472;-34
2022/11/25 05:22:15;;;;;;;5.47;1.88;;;10.40;88.90;;;;;;5050879;28;20021;-31
2022/11/25 05:24:41;;;;;;;4.05;1.60;;;10.40;88.90;;;;;;5050809;28;20029;-33
2022/11/25 05:27:07;;;;;;;9.18;1.70;;;10.30;88.90;;;;;;5049579;28;20028;-33
2022/11/25 05:29:32;;;;;;;5.53;1.80;;;10.30;89.00;;;;;;5051047;28;20063;-33
2022/11/25 05:31:58;;;;;;;6.72;1.80;;;10.40;89.10;;;;;;5050737;28;20037;-33
2022/11/25 05:34:24;;;;;;;7.20;1.73;;;10.30;89.00;;;;;;5049472;28;20112;-35
2022/11/25 05:36:50;;;;;;;5.70;2.05;;;10.40;89.10;;;;;;5050908;28;20063;-34
2022/11/25 05:39:16;;;;;;;4.90;1.75;;;10.40;89.10;;;;;;5051016;28;20021;-33
2022/11/25 05:41:42;;;;;;;5.05;1.90;;;10.40;89.20;;;;;;5054390;28;20036;-33
2022/11/25 05:44:08;;;;;;;5.82;1.48;;;10.40;89.10;;;;;;5054158;28;20112;-33
2022/11/25 05:46:33;;;;;;;7.10;1.90;;;10.30;89.10;;;;;;5054143;28;20029;-32
2022/11/25 05:48:59;;;;;;;6.97;2.20;;;10.40;89.20;;;;;;5053928;28;20117;-33
2022/11/25 05:51:27;;;;;;;7.07;1.95;;;10.30;89.20;;;;;;5053963;28;20037;-40
2022/11/25 05:53:53;;;;;;;6.03;2.10;;;10.40;89.30;;;;;;5053847;28;20035;-33
2022/11/25 05:56:19;;;;;;;5.38;1.80;;;10.40;89.30;;;;;;5054043;28;20120;-32
2022/11/25 05:58:45;;;;;;;6.85;1.92;;;10.40;89.30;;;;;;5053781;28;20409;-33
2022/11/25 06:01:13;;;;;;;6.55;2.00;;;10.30;89.30;;;;;;5052443;28;20074;-33
2022/11/25 06:03:39;;;;;;;7.00;2.10;;;10.40;89.40;;;;;;5054002;28;20381;-33
2022/11/25 06:06:06;;;;;;;8.45;2.05;;;10.40;89.40;;;;;;5054047;28;20067;-32
2022/11/25 06:08:32;;;;;;;6.85;2.15;;;10.40;89.40;;;;;;5071226;28;20056;-32
2022/11/25 06:10:58;;;;;;;4.80;1.90;;;10.40;89.40;;;;;;5073599;28;20035;-31
2022/11/25 06:13:23;;;;;;;8.98;2.15;;;10.40;89.30;;;;;;5073705;28;20107;-32
2022/11/25 06:15:49;;;;;;;6.22;2.00;;;10.40;89.30;;;;;;5073884;28;20030;-32
2022/11/25 06:18:16;;;;;;;7.15;1.80;;;10.30;89.30;;;;;;5073380;28;20028;-31
2022/11/25 06:20:42;;;;;;;5.13;2.30;;;10.40;89.40;;;;;;5073705;28;20517;-33
2022/11/25 06:23:08;;;;;;;6.15;1.52;;;10.40;89.40;;;;;;5073251;28;20025;-32
2022/11/25 06:25:35;;;;;;;7.05;1.83;;;10.40;89.40;;;;;;5073336;28;20464;-32
2022/11/25 06:28:02;;;;;;;4.40;1.60;;;10.40;89.40;;;;;;5073259;28;20032;-32
2022/11/25 06:30:28;;;;;;;3.75;1.42;;;10.40;89.40;;;;;;5055386;28;20056;-32
2022/11/25 06:32:54;;;;;;;2.83;1.33;;;10.40;89.30;;;;;;5055331;28;20032;-35
2022/11/25 06:35:19;;;;;;;5.00;1.30;;;10.40;89.30;;;;;;5073331;28;20133;-32
2022/11/25 06:37:45;;;;;;;3.97;1.30;;;10.40;89.30;;;;;;5073112;28;20017;-32
2022/11/25 06:40:11;;;;;;;3.35;1.23;;;10.40;89.30;;;;;;5072878;28;20051;-33
2022/11/25 06:42:37;;;;;;;5.10;1.48;;;10.40;89.30;;;;;;5072806;28;20423;-34
2022/11/25 06:45:04;;;;;;;5.22;1.33;;;10.30;89.30;;;;;;5072883;28;20024;-31
2022/11/25 06:47:29;;;;;;;4.82;1.50;;;10.30;89.40;;;;;;5072867;28;20044;-32
2022/11/25 06:49:55;;;;;;;2.55;1.20;;;10.20;89.50;;;;;;5072487;28;20052;-32
2022/11/25 06:52:21;;;;;;;5.25;1.70;;;10.20;89.60;;;;;;5072449;28;20043;-32
2022/11/25 06:54:46;;;;;;;4.30;1.60;;;10.10;89.60;;;;;;5072650;28;20044;-32
2022/11/25 06:57:16;;;;;;;4.45;1.60;;;10.10;89.70;;;;;;5072581;28;20021;-32
2022/11/25 06:59:42;;;;;;;4.40;1.45;;;10.00;89.70;;;;;;5072877;28;20529;-41
2022/11/25 07:02:10;;;;;;;3.67;1.45;;;10.00;89.80;;;;;;5072458;28;20043;-32
2022/11/25 07:04:35;;;;;;;3.78;1.60;;;10.00;89.80;;;;;;5072319;28;20115;-32
2022/11/25 07:07:01;;;;;;;3.58;1.63;;;9.90;89.80;;;;;;5072135;28;20486;-32
2022/11/25 07:09:26;;;;;;;3.85;1.63;;;9.90;89.90;;;;;;5072146;28;20103;-31
2022/11/25 07:11:52;;;;;;;4.05;1.67;;;9.90;90.00;;;;;;5072273;28;20489;-32
2022/11/25 07:14:17;;;;;;;2.83;1.35;;;9.90;90.00;;;;;;5072253;28;20062;-32
2022/11/25 07:16:44;;;;;;;3.47;2.13;;;9.80;89.90;;;;;;5072127;28;20029;-32
2022/11/25 07:19:12;;;;;;;3.97;1.77;;;9.80;89.90;;;;;;5072383;28;20395;-30
2022/11/25 07:21:38;;;;;;;6.35;1.90;;;9.80;89.90;;;;;;5072358;28;20349;-28
2022/11/25 07:24:06;;;;;;;4.05;2.03;;;9.80;90.00;;;;;;5072168;28;20024;-28
2022/11/25 07:26:37;;;;;;;4.20;1.50;;;9.70;89.90;;;;;;5072136;28;20029;-26
2022/11/25 07:29:14;;;;;;;3.85;1.30;;;9.70;90.00;;;;;;5072287;28;20032;-27
2022/11/25 07:31:43;;;;;;;6.30;1.60;;;9.70;90.00;;;;;;5072188;28;20496;-27
2022/11/25 07:34:17;;;;;;;3.53;2.00;;;9.70;90.00;;;;;;5071932;28;20035;-27
2022/11/25 07:36:44;;;;;;;5.28;1.52;;;9.60;90.00;;;;;;5071971;28;20485;-29
2022/11/25 07:39:16;;;;;;;6.55;1.60;;;9.60;90.00;;;;;;5071784;28;20051;-28
2022/11/25 07:41:42;;;;;;;2.97;1.40;;;9.60;90.00;;;;;;5071760;28;20028;-25
2022/11/25 07:44:10;;;;;;;3.60;1.60;;;9.60;90.00;;;;;;5071991;28;20016;-32
2022/11/25 07:46:41;;;;;;;4.18;1.75;;;9.60;90.10;;;;;;5071867;28;20028;-25
2022/11/25 07:49:13;;;;;;;4.45;1.63;;;9.60;90.00;;;;;;5071910;28;20507;-30
2022/11/25 07:51:49;;;;;;;3.80;1.80;;;9.60;90.00;;;;;;5071714;28;20028;-26
2022/11/25 07:54:15;;;;;;;4.03;1.60;;;9.60;90.00;;;;;;5071658;28;20016;-31
2022/11/25 07:56:41;;;;;;;3.60;1.48;;;9.60;90.00;;;;;;5071927;28;20017;-29
2022/11/25 07:59:14;;;;;;;4.93;1.85;;;9.60;90.00;;;;;;5071784;28;20020;-31
2022/11/25 08:01:40;;;;;;;5.20;1.70;;;9.60;90.10;;;;;;5071413;28;20107;-28
2022/11/25 08:04:08;;;;;;;4.65;1.60;;;9.50;90.00;;;;;;5070991;28;20036;-27
2022/11/25 08:06:38;;;;;;;2.58;1.52;;;9.60;90.10;;;;;;5071778;28;20021;-28
2022/11/25 08:09:04;;;;;;;3.10;1.55;;;9.60;90.10;;;;;;5071433;28;20017;-37
2022/11/25 08:11:30;;;;;;;5.13;1.90;;;9.60;90.10;;;;;;5071436;28;20024;-39
2022/11/25 08:13:56;;;;;;;5.95;1.67;;;9.50;90.10;;;;;;5071802;28;20071;-41
2022/11/25 08:16:25;;;;;;;6.88;1.90;;;9.60;90.10;;;;;;5071629;28;20381;-44
2022/11/25 08:18:50;;;;;;;5.82;1.88;;;9.60;90.10;;;;;;5071712;28;20017;-31
2022/11/25 08:21:17;;;;;;;5.55;1.75;;;9.60;90.10;;;;;;5071749;28;20065;-32
2022/11/25 08:23:46;;;;;;;4.90;1.77;;;9.50;90.00;;;;;;5071872;28;20104;-33
2022/11/25 08:26:29;;;;;;;6.15;2.15;;;9.60;90.00;;;;;;5071625;28;20054;-31
2022/11/25 08:28:55;;;;;;;2.97;1.50;;;9.50;90.00;;;;;;5071379;28;20024;-32
2022/11/25 08:31:24;;;;;;;4.82;1.80;;;9.60;90.00;;;;;;5071314;28;20093;-31
2022/11/25 08:33:51;;;;;;;3.42;1.73;;;9.60;90.00;;;;;;5071407;28;20061;-31
2022/11/25 08:36:17;;;;;;;7.40;1.65;;;9.60;90.00;;;;;;5071365;28;20021;-34
2022/11/25 08:38:45;;;;;;;6.65;1.45;;;9.60;90.10;;;;;;5071637;28;20062;-36
2022/11/25 08:41:13;;;;;;;4.55;2.30;;;9.60;90.00;;;;;;5071693;28;20012;-32
2022/11/25 08:43:39;;;;;;;6.43;1.75;;;9.60;90.00;;;;;;5071619;28;20029;-32
2022/11/25 08:46:15;;;;;;;3.72;1.70;;;9.60;89.90;;;;;;5071568;28;20047;-32
2022/11/25 08:48:41;;;;;;;5.20;2.00;;;9.60;89.90;;;;;;5071167;28;20040;-32
2022/11/25 08:51:10;;;;;;;4.30;2.10;;;9.60;89.90;;;;;;5071357;28;20021;-31
2022/11/25 08:53:36;;;;;;;6.35;2.20;;;9.50;89.90;;;;;;5071127;28;20109;-33
2022/11/25 08:56:03;;;;;;;5.32;1.98;;;9.60;90.00;;;;;;5071068;28;20388;-38
2022/11/25 08:58:29;;;;;;;4.32;1.85;;;9.60;90.00;;;;;;5071594;28;20047;-34
2022/11/25 09:00:54;;;;;;;4.57;1.80;;;9.60;90.00;;;;;;5071154;28;20459;-33
2022/11/25 09:03:21;;;;;;;4.50;1.70;;;9.60;89.90;;;;;;5070875;28;20543;-32
2022/11/25 09:05:48;;;;;;;6.72;2.10;;;9.60;89.90;;;;;;5071314;28;20035;-31
2022/11/25 09:08:13;;;;;;;5.55;1.90;;;9.70;89.90;;;;;;5070810;28;20496;-37
2022/11/25 09:10:39;;;;;;;4.00;1.60;;;9.70;89.90;;;;;;5071430;28;20039;-34
2022/11/25 09:13:05;;;;;;;8.63;2.20;;;9.70;89.90;;;;;;5071140;28;20472;-32
2022/11/25 09:15:31;;;;;;;4.75;2.15;;;9.70;89.80;;;;;;5074802;28;20025;-31
2022/11/25 09:18:01;;;;;;;5.03;1.90;;;9.70;89.70;;;;;;5075007;28;20025;-32
2022/11/25 09:20:27;;;;;;;6.68;2.20;;;9.70;89.70;;;;;;5074706;28;20029;-32
2022/11/25 09:22:53;;;;;;;6.07;2.13;;;9.70;89.60;;;;;;5075083;28;20414;-32
2022/11/25 09:25:20;;;;;;;4.57;1.83;;;9.70;89.60;;;;;;5074599;28;20100;-35
2022/11/25 09:27:45;;;;;;;3.60;1.88;;;9.80;89.60;;;;;;5075159;28;20035;-38
2022/11/25 09:30:11;;;;;;;5.85;1.90;;;9.80;89.70;;;;;;5074507;28;20028;-32
2022/11/25 09:32:37;;;;;;;4.00;1.95;;;9.80;89.60;;;;;;5074771;28;20028;-32
2022/11/25 09:35:03;;;;;;;3.75;1.98;;;9.90;89.50;;;;;;5074514;28;20060;-32
2022/11/25 09:37:28;;;;;;;6.35;2.20;;;9.90;89.50;;;;;;5074838;28;20047;-34
2022/11/25 09:39:54;;;;;;;4.57;2.22;;;9.90;89.50;;;;;;5074513;28;20032;-40
2022/11/25 09:48:33;;;;;;;3.75;2.30;;;10.00;89.20;;;;;;5074240;28;20050;-32
2022/11/25 09:51:09;;;;;;;6.22;2.60;;;10.00;89.10;;;;;;5074396;28;20499;-33
2022/11/25 09:53:53;;;;;;;5.75;1.90;;;10.10;89.10;;;;;;5074059;28;20089;-33
2022/11/25 09:56:25;;;;;;;6.07;1.92;;;10.10;89.00;;;;;;5073989;28;20523;-32
2022/11/25 09:58:56;;;;;;;5.05;2.13;;;10.10;88.90;;;;;;5073914;28;20028;-32
2022/11/25 10:01:27;;;;;;;3.45;1.70;;;10.10;88.90;;;;;;5073995;28;20465;-31
2022/11/25 10:03:59;;;;;;;5.22;2.10;;;10.20;88.90;;;;;;5073995;28;20025;-31
2022/11/25 10:06:31;;;;;;;4.10;1.55;;;10.20;88.70;;;;;;5074290;28;20380;-32
2022/11/25 10:09:01;;;;;;;4.93;2.03;;;10.30;88.60;;;;;;5073954;28;20044;-32
2022/11/25 10:11:54;;;;;;;7.18;2.38;;;10.30;88.50;;;;;;5073970;28;20037;-32
2022/11/25 10:14:31;;;;;;;10.07;2.80;;;10.30;88.50;;;;;;5074035;28;20472;-32
2022/11/25 10:17:39;;;;;;;6.03;2.80;;;10.30;88.30;;;;;;5073984;28;20032;-33
2022/11/25 10:20:11;;;;;;;5.43;2.92;;;10.30;88.10;;;;;;5052180;28;20098;-38
2022/11/25 10:22:42;;;;;;;7.05;2.58;;;10.30;88.10;;;;;;5055559;28;20131;-33
2022/11/25 10:25:27;;;;;;;6.18;2.60;;;10.40;88.20;;;;;;5072729;28;20040;-33
2022/11/25 10:28:01;;;;;;;6.53;2.80;;;10.40;88.00;;;;;;5073707;28;20024;-32
2022/11/25 10:30:38;;;;;;;6.22;2.30;;;10.40;88.00;;;;;;5055505;28;20136;-32
2022/11/25 10:33:19;;;;;;;4.15;2.50;;;10.50;88.00;;;;;;5073400;28;20035;-32
2022/11/25 10:36:14;;;;;;;5.53;2.63;;;10.50;87.90;;;;;;5073269;28;20112;-32
2022/11/25 10:39:00;;;;;;;4.70;2.30;;;10.50;87.70;;;;;;5073468;28;20032;-35
2022/11/25 10:41:30;;;;;;;5.90;2.58;;;10.60;87.70;;;;;;5073375;28;20024;-34
2022/11/25 10:43:56;;;;;;;8.35;2.78;;;10.60;87.60;;;;;;5055193;28;20024;-41
2022/11/25 10:46:50;;;;;;;5.78;2.63;;;10.60;87.50;;;;;;5072990;28;20392;-31
2022/11/25 10:49:27;;;;;;;5.28;2.75;;;10.70;87.50;;;;;;5073290;28;20140;-33
2022/11/25 10:51:56;;;;;;;7.65;2.80;;;10.70;87.30;;;;;;5073134;28;20033;-31
2022/11/25 10:54:24;;;;;;;5.18;2.70;;;10.70;87.20;;;;;;5054904;28;20033;-33
2022/11/25 10:57:02;;;;;;;4.95;2.45;;;10.70;87.10;;;;;;5072913;28;20040;-32
2022/11/25 10:59:33;;;;;;;6.13;2.90;;;10.80;87.10;;;;;;5072828;28;20549;-32
2022/11/25 11:02:20;;;;;;;5.93;2.80;;;10.80;87.00;;;;;;5072605;28;20123;-32
2022/11/25 11:05:07;;;;;;;7.03;2.50;;;10.90;86.80;;;;;;5072977;28;20055;-33
2022/11/25 11:07:35;;;;;;;7.57;3.25;;;10.90;86.70;;;;;;5072477;28;20492;-32
2022/11/25 11:10:19;;;;;;;5.43;2.60;;;10.90;86.70;;;;;;5072477;28;20036;-32
2022/11/25 11:12:55;;;;;;;6.88;2.70;;;11.00;86.60;;;;;;5054957;28;20071;-32
2022/11/25 11:15:23;;;;;;;6.28;2.97;;;11.00;86.50;;;;;;5072459;28;20390;-32
2022/11/25 11:17:50;;;;;;;5.32;2.55;;;11.00;86.30;;;;;;5072483;28;20028;-31
2022/11/25 11:20:24;;;;;;;6.35;2.80;;;11.00;86.30;;;;;;5072311;28;20020;-37
2022/11/25 11:23:11;;;;;;;8.63;2.75;;;11.10;86.20;;;;;;5072301;28;20056;-32
2022/11/25 11:25:39;;;;;;;7.60;2.60;;;11.10;86.10;;;;;;5072263;28;20070;-34
2022/11/25 11:28:37;;;;;;;6.47;2.42;;;11.20;86.00;;;;;;5072081;28;20036;-31
2022/11/25 11:31:10;;;;;;;4.32;2.38;;;11.20;86.60;;;;;;5072117;28;20043;-34
2022/11/25 11:33:50;;;;;;;5.47;2.38;;;11.20;86.00;;;;;;5072173;28;20068;-36
2022/11/25 11:36:27;;;;;;;6.82;2.78;;;11.30;85.90;;;;;;5072143;28;20029;-35
2022/11/25 11:38:54;;;;;;;6.15;2.80;;;11.30;85.60;;;;;;5072103;28;20407;-32
2022/11/25 11:41:31;;;;;;;7.68;2.58;;;11.40;85.40;;;;;;5054034;28;20040;-34
2022/11/25 11:44:28;;;;;;;7.63;2.47;;;11.40;85.10;;;;;;5071932;28;20017;-34
2022/11/25 11:47:40;;;;;;;6.55;2.67;;;11.40;85.00;;;;;;5071785;28;20028;-32
2022/11/25 11:50:35;;;;;;;7.55;2.70;;;11.50;84.50;;;;;;4989916;28;20601;-32
2022/11/25 11:53:05;;;;;;;8.60;2.80;;;11.60;84.60;;;;;;5070979;28;20028;-32
2022/11/25 11:55:53;;;;;;;10.27;3.00;;;11.60;84.30;;;;;;5071689;28;20028;-32
2022/11/25 11:58:33;;;;;;;11.57;2.83;;;11.70;84.10;;;;;;5071821;28;20641;-34
2022/11/25 12:01:36;;;;;;;8.73;2.70;;;11.70;83.80;;;;;;5071752;28;20028;-33
2022/11/25 12:04:17;;;;;;;9.63;2.70;;;11.70;83.90;;;;;;5071514;28;20039;-37
2022/11/25 12:06:54;;;;;;;6.22;2.50;;;11.80;83.80;;;;;;5071401;28;20036;-36
2022/11/25 12:09:22;;;;;;;9.15;2.72;;;11.90;83.60;;;;;;5071610;28;20118;-32
2022/11/25 12:11:54;;;;;;;7.47;2.45;;;11.90;83.40;;;;;;5071683;28;20484;-34
2022/11/25 12:14:59;;;;;;;11.02;2.40;;;11.90;83.10;;;;;;5071566;28;20059;-33
2022/11/25 12:17:43;;;;;;;7.55;2.38;;;11.90;83.00;;;;;;5031303;28;20036;-38
2022/11/25 12:20:25;;;;;;;5.80;2.10;;;12.00;83.10;;;;;;5071635;28;20170;-32
2022/11/25 12:23:21;;;;;;;8.68;2.55;;;12.00;83.00;;;;;;5071689;28;20033;-32
2022/11/25 12:25:53;;;;;;;7.93;2.40;;;12.00;82.90;;;;;;5067394;28;20047;-32
2022/11/25 12:28:29;;;;;;;7.65;2.42;;;12.00;83.20;;;;;;5071561;28;20039;-32
2022/11/25 12:31:30;;;;;;;10.27;2.45;;;12.00;82.70;;;;;;5071509;28;20387;-32
2022/11/25 12:34:04;;;;;;;6.38;2.78;;;12.00;82.70;;;;;;5053250;28;20480;-33
2022/11/25 12:36:33;;;;;;;5.72;2.55;;;12.00;82.70;;;;;;5071318;28;20549;-33
2022/11/25 12:39:20;;;;;;;9.02;2.72;;;12.00;82.50;;;;;;5053272;28;20403;-31
2022/11/25 12:42:03;;;;;;;8.82;2.35;;;12.00;82.50;;;;;;5071264;28;20064;-32
2022/11/25 12:44:42;;;;;;;15.33;2.77;;;12.00;82.40;;;;;;5071512;28;20021;-32
2022/11/25 12:47:11;;;;;;;9.30;2.60;;;11.90;82.20;;;;;;5053035;28;20033;-31
2022/11/25 12:49:46;;;;;;;10.38;2.55;;;12.00;82.20;;;;;;5073933;28;20480;-32
2022/11/25 12:52:31;;;;;;;7.53;2.83;;;12.00;82.10;;;;;;5075170;28;20410;-32
2022/11/25 12:55:22;;;;;;;10.00;2.55;;;12.00;81.80;;;;;;5075451;28;20078;-32
2022/11/25 12:58:18;;;;;;;9.38;2.70;;;12.00;81.80;;;;;;5075250;28;20025;-32
2022/11/25 13:01:11;;;;;;;9.85;2.90;;;12.10;81.90;;;;;;5075168;28;20028;-33
2022/11/25 13:03:50;;;;;;;10.48;2.42;;;12.10;81.80;;;;;;5075204;28;20506;-36
2022/11/25 13:06:37;;;;;;;6.97;2.22;;;12.10;81.80;;;;;;5075013;28;20039;-34
2022/11/25 13:09:27;;;;;;;12.32;3.05;;;12.10;81.60;;;;;;5074651;28;20512;-35
2022/11/25 13:12:04;;;;;;;8.80;2.40;;;12.10;81.50;;;;;;5074775;28;20519;-32
2022/11/25 13:14:48;;;;;;;6.40;2.10;;;12.10;81.60;;;;;;5075194;28;20048;-33
2022/11/25 13:17:14;;;;;;;9.68;2.25;;;12.10;81.60;;;;;;5075153;28;20024;-33